Time;durP1;ratioP1;P1;durP2;ratioP2;P2;SDS_P1;SDS_P2;PMS_P1;PMS_P2;Temp;Humidity;BMP_temperature;BMP_pressure;BME280_temperature;BME280_humidity;BME280_pressure;Samples;Min_cycle;Max_cycle;Signal;HPM_P1;HPM_P2
2023/01/28 00:00:49;;;;;;;28.27;26.30;;;;;;;-3.24;100.00;102965.25;5101921;28;20430;-46
2023/01/28 00:03:18;;;;;;;29.10;27.10;;;;;;;-3.27;100.00;102967.97;5101616;28;20480;-46
2023/01/28 00:05:46;;;;;;;30.70;28.40;;;;;;;-3.30;100.00;102968.91;5102041;28;20426;-48
2023/01/28 00:08:14;;;;;;;29.20;27.30;;;;;;;-3.32;100.00;102969.88;5102301;28;20541;-50
2023/01/28 00:10:42;;;;;;;29.17;26.97;;;;;;;-3.36;100.00;102975.22;5101819;28;20950;-45
2023/01/28 00:13:13;;;;;;;25.50;24.03;;;;;;;-3.37;100.00;102985.69;5101595;28;20433;-47
2023/01/28 00:15:41;;;;;;;28.10;26.20;;;;;;;-3.40;100.00;102977.97;5101808;28;20444;-46
2023/01/28 00:18:09;;;;;;;27.50;25.70;;;;;;;-3.43;100.00;102983.28;5102367;28;20465;-44
2023/01/28 00:20:38;;;;;;;27.77;25.83;;;;;;;-3.48;100.00;102986.06;5101581;28;20433;-45
2023/01/28 00:23:06;;;;;;;25.80;24.30;;;;;;;-3.52;100.00;102984.44;5101739;28;20433;-45
2023/01/28 00:25:33;;;;;;;26.17;24.40;;;;;;;-3.53;100.00;102987.13;5101996;28;20451;-47
2023/01/28 00:28:01;;;;;;;27.70;25.80;;;;;;;-3.56;100.00;102984.63;5101079;28;20499;-44
2023/01/28 00:30:29;;;;;;;27.50;25.73;;;;;;;-3.57;100.00;102978.53;5101942;28;20818;-48
2023/01/28 00:32:56;;;;;;;29.00;27.00;;;;;;;-3.59;100.00;102972.53;5101925;28;20425;-45
2023/01/28 00:35:24;;;;;;;26.50;25.03;;;;;;;-3.60;100.00;102977.78;5100709;28;20461;-45
2023/01/28 00:37:53;;;;;;;28.30;26.27;;;;;;;-3.64;100.00;102974.44;5101955;28;20429;-45
2023/01/28 00:40:21;;;;;;;27.47;25.47;;;;;;;-3.66;100.00;102959.75;5101347;28;20957;-44
2023/01/28 00:42:49;;;;;;;28.40;26.60;;;;;;;-3.69;100.00;102958.09;5101192;28;20509;-46
2023/01/28 00:45:17;;;;;;;26.90;25.10;;;;;;;-3.72;100.00;102959.94;5100460;28;20461;-46
2023/01/28 00:47:45;;;;;;;27.30;25.57;;;;;;;-3.75;100.00;102955.69;5101575;28;20465;-50
2023/01/28 00:50:12;;;;;;;27.87;25.87;;;;;;;-3.78;100.00;102957.53;5101991;28;20453;-44
2023/01/28 00:52:40;;;;;;;26.27;24.73;;;;;;;-3.81;100.00;102961.13;5101572;28;20425;-44
2023/01/28 00:55:09;;;;;;;27.90;26.23;;;;;;;-3.82;100.00;102963.78;5100329;28;20464;-46
2023/01/28 00:57:37;;;;;;;28.60;26.47;;;;;;;-3.82;100.00;102974.22;5102111;28;21220;-50
2023/01/28 01:00:06;;;;;;;30.50;28.23;;;;;;;-3.84;100.00;102970.78;5100852;28;20454;-46
2023/01/28 01:02:34;;;;;;;27.67;25.90;;;;;;;-3.86;100.00;102983.03;5100905;28;20429;-46
2023/01/28 01:05:02;;;;;;;29.50;27.40;;;;;;;-3.89;100.00;102967.47;5100030;28;20769;-47
2023/01/28 01:07:40;;;;;;;27.97;26.17;;;;;;;-3.91;100.00;102980.53;5101150;28;20576;-49
2023/01/28 01:10:12;;;;;;;26.77;24.90;;;;;;;-3.95;100.00;102984.19;5101290;28;20456;-48
2023/01/28 01:12:40;;;;;;;26.93;25.30;;;;;;;-3.97;100.00;102980.75;5101311;28;20433;-46
2023/01/28 01:15:10;;;;;;;27.43;25.57;;;;;;;-3.99;100.00;102966.91;5099932;28;20458;-51
2023/01/28 01:17:38;;;;;;;28.03;26.07;;;;;;;-4.01;100.00;102966.13;5101058;28;20483;-46
2023/01/28 01:20:08;;;;;;;28.33;26.67;;;;;;;-4.03;100.00;102973.13;5100361;28;20461;-46
2023/01/28 01:22:36;;;;;;;28.80;26.70;;;;;;;-4.07;100.00;102969.78;5101355;28;20435;-47
2023/01/28 01:25:05;;;;;;;29.40;27.20;;;;;;;-4.09;100.00;102958.53;5100384;28;20465;-50
2023/01/28 01:27:34;;;;;;;26.23;24.80;;;;;;;-4.11;100.00;102957.75;5101039;28;20903;-46
2023/01/28 01:30:02;;;;;;;27.33;25.50;;;;;;;-4.16;100.00;102951.84;5101071;28;20826;-46
2023/01/28 01:32:31;;;;;;;28.03;26.33;;;;;;;-4.18;100.00;102938.00;5101538;28;20425;-51
2023/01/28 01:34:59;;;;;;;28.57;26.77;;;;;;;-4.19;100.00;102951.94;5100991;28;20461;-46
2023/01/28 01:37:27;;;;;;;28.53;26.93;;;;;;;-4.21;100.00;102940.69;5102144;28;20956;-48
2023/01/28 01:39:55;;;;;;;27.77;26.10;;;;;;;-4.22;100.00;102944.22;5094960;28;20460;-51
2023/01/28 01:42:24;;;;;;;29.17;27.07;;;;;;;-4.22;100.00;102943.34;5101626;28;20436;-52
2023/01/28 01:44:57;;;;;;;26.97;25.37;;;;;;;-4.23;100.00;102945.09;5101940;28;21020;-49
2023/01/28 01:47:29;;;;;;;29.37;27.47;;;;;;;-4.23;100.00;102954.66;5102442;28;20491;-50
2023/01/28 01:50:02;;;;;;;27.97;26.37;;;;;;;-4.24;100.00;102951.22;5102340;28;20793;-51
2023/01/28 01:52:33;;;;;;;27.27;25.47;;;;;;;-4.24;100.00;102947.78;5102549;28;20418;-49
2023/01/28 01:55:06;;;;;;;27.10;25.57;;;;;;;-4.25;100.00;102936.50;5101265;28;20884;-48
2023/01/28 01:57:35;;;;;;;29.13;27.33;;;;;;;-4.26;100.00;102947.81;5102044;28;20516;-51
2023/01/28 02:00:08;;;;;;;27.30;25.60;;;;;;;-4.24;100.00;102955.59;5101640;28;20528;-48
2023/01/28 02:02:39;;;;;;;29.50;27.10;;;;;;;-4.24;100.00;102961.63;5102349;28;20490;-48
2023/01/28 02:05:08;;;;;;;28.03;26.33;;;;;;;-4.25;100.00;102943.44;5100704;28;21002;-51
2023/01/28 02:07:36;;;;;;;29.50;27.30;;;;;;;-4.26;100.00;102936.53;5101917;28;20465;-48
2023/01/28 02:10:06;;;;;;;27.33;25.77;;;;;;;-4.29;100.00;102934.88;5101025;28;20448;-47
2023/01/28 02:12:37;;;;;;;26.80;24.93;;;;;;;-4.29;100.00;102944.44;5103225;28;20428;-45
2023/01/28 02:15:10;;;;;;;28.10;26.50;;;;;;;-4.31;100.00;102941.91;5105371;28;20461;-45
2023/01/28 02:17:38;;;;;;;30.33;28.27;;;;;;;-4.32;100.00;102939.31;5106374;28;20425;-46
2023/01/28 02:20:10;;;;;;;29.07;27.27;;;;;;;-4.33;100.00;102933.25;5105361;28;20471;-47
2023/01/28 02:23:16;;;;;;;28.63;26.83;;;;;;;-4.34;100.00;102933.31;5106604;28;20455;-51
2023/01/28 02:26:16;;;;;;;29.30;27.43;;;;;;;-4.35;100.00;102931.59;5105909;28;20929;-47
2023/01/28 02:28:50;;;;;;;28.83;27.00;;;;;;;-4.34;100.00;102928.97;5104866;28;20479;-49
2023/01/28 02:31:22;;;;;;;29.23;27.20;;;;;;;-4.35;100.00;102937.66;5105943;28;20511;-50
2023/01/28 02:33:56;;;;;;;30.53;28.43;;;;;;;-4.35;100.00;102950.69;5105156;28;20477;-52
2023/01/28 02:36:30;;;;;;;29.50;27.60;;;;;;;-4.35;100.00;102947.22;5105449;28;20425;-51
2023/01/28 02:39:02;;;;;;;29.97;27.90;;;;;;;-4.35;100.00;102949.84;5103422;28;20449;-49
2023/01/28 02:41:37;;;;;;;29.00;27.10;;;;;;;-4.37;100.00;102944.69;5099142;28;20433;-49
2023/01/28 02:44:06;;;;;;;30.00;28.23;;;;;;;-4.38;100.00;102940.38;5103823;28;20449;-48
2023/01/28 02:49:27;;;;;;;30.23;28.10;;;;;;;-4.36;100.00;102935.97;5104636;28;20564;-50
2023/01/28 02:52:08;;;;;;;28.50;26.50;;;;;;;-4.38;100.00;102929.97;5104359;28;20512;-48
2023/01/28 02:54:45;;;;;;;30.30;28.30;;;;;;;-4.36;100.00;102929.94;5103964;28;20532;-49
2023/01/28 02:57:25;;;;;;;32.30;30.30;;;;;;;-4.37;100.00;102929.06;5104473;28;20528;-46
2023/01/28 02:59:59;;;;;;;30.97;28.87;;;;;;;-4.39;100.00;102927.41;5104189;28;20521;-52
2023/01/28 03:02:33;;;;;;;29.43;27.63;;;;;;;-4.42;100.00;102925.72;5103618;28;20425;-51
2023/01/28 03:05:05;;;;;;;29.33;27.53;;;;;;;-4.44;100.00;102914.53;5103861;28;20467;-50
2023/01/28 03:07:35;;;;;;;28.83;27.23;;;;;;;-4.47;100.00;102907.66;5104718;28;20430;-48
2023/01/28 03:10:06;;;;;;;28.47;26.60;;;;;;;-4.51;100.00;102900.84;5103941;28;20453;-47
2023/01/28 03:37:58;;;;;;;31.57;29.47;;;;;;;-4.48;100.00;102915.53;5103859;28;20417;-51
2023/01/28 03:40:27;;;;;;;30.50;28.40;;;;;;;-4.48;100.00;102923.34;5095329;28;20429;-47
2023/01/28 03:42:55;;;;;;;32.67;30.27;;;;;;;-4.48;100.00;102928.56;5104121;28;20430;-48
2023/01/28 03:45:23;;;;;;;31.53;28.80;;;;;;;-4.48;100.00;102918.13;5103064;28;20468;-49
2023/01/28 03:47:52;;;;;;;29.90;28.10;;;;;;;-4.50;100.00;102914.72;5103658;28;20446;-46
2023/01/28 03:50:20;;;;;;;31.03;28.90;;;;;;;-4.51;100.00;102905.22;5103033;28;20443;-44
2023/01/28 03:52:48;;;;;;;30.27;28.17;;;;;;;-4.52;100.00;102911.31;5103271;28;20459;-50
2023/01/28 03:55:15;;;;;;;29.07;27.13;;;;;;;-4.53;100.00;102910.44;5103268;28;20513;-47
2023/01/28 03:57:44;;;;;;;29.93;28.03;;;;;;;-4.54;100.00;102911.34;5103643;28;20446;-47
2023/01/28 04:00:13;;;;;;;29.00;27.30;;;;;;;-4.54;100.00;102920.94;5103879;28;20503;-48
2023/01/28 04:02:40;;;;;;;32.27;29.97;;;;;;;-4.54;100.00;102920.94;5101269;28;20440;-48
2023/01/28 04:05:11;;;;;;;32.07;29.97;;;;;;;-4.53;100.00;102933.03;5092290;28;20465;-43
2023/01/28 04:07:39;;;;;;;33.17;30.63;;;;;;;-4.53;100.00;102938.25;5093435;28;20429;-43
2023/01/28 04:10:08;;;;;;;32.67;30.40;;;;;;;-4.53;100.00;102922.63;5093186;28;20559;-48
2023/01/28 04:12:37;;;;;;;31.40;29.40;;;;;;;-4.54;100.00;102926.97;5093263;28;20422;-47
2023/01/28 04:15:14;;;;;;;31.80;29.60;;;;;;;-4.52;100.00;102919.13;5092450;28;20826;-44
2023/01/28 04:17:45;;;;;;;33.50;31.07;;;;;;;-4.51;100.00;102910.44;5092865;28;20425;-45
2023/01/28 04:20:15;;;;;;;33.07;30.57;;;;;;;-4.51;100.00;102907.81;5093172;28;20442;-49
2023/01/28 04:22:43;;;;;;;32.60;30.10;;;;;;;-4.51;100.00;102905.22;5093446;28;20433;-45
2023/01/28 04:25:11;;;;;;;32.97;30.53;;;;;;;-4.49;100.00;102908.63;5092289;28;20515;-44
2023/01/28 04:27:39;;;;;;;32.83;30.40;;;;;;;-4.50;100.00;102892.13;5092954;28;20452;-47
2023/01/28 04:30:08;;;;;;;35.20;32.43;;;;;;;-4.45;100.00;102891.16;5092600;28;20476;-43
2023/01/28 04:32:36;;;;;;;36.27;33.20;;;;;;;-4.41;100.00;102888.38;5092938;28;20799;-43
2023/01/28 04:35:03;;;;;;;35.17;32.53;;;;;;;-4.38;100.00;102890.03;5091984;28;20838;-44
2023/01/28 04:37:32;;;;;;;37.03;34.00;;;;;;;-4.37;100.00;102889.16;5092754;28;20430;-43
2023/01/28 04:40:00;;;;;;;34.07;31.57;;;;;;;-4.36;100.00;102883.03;5084036;28;20811;-46
2023/01/28 04:42:28;;;;;;;33.30;31.00;;;;;;;-4.35;100.00;102889.94;5092413;28;20429;-44
2023/01/28 04:44:55;;;;;;;35.47;32.87;;;;;;;-4.35;100.00;102879.50;5091835;28;20458;-45
2023/01/28 04:47:23;;;;;;;35.07;32.43;;;;;;;-4.35;100.00;102882.97;5092706;28;20432;-47
2023/01/28 04:49:51;;;;;;;36.00;33.10;;;;;;;-4.31;100.00;102868.97;5092269;28;20480;-43
2023/01/28 04:52:18;;;;;;;35.50;32.63;;;;;;;-4.29;100.00;102867.16;5092404;28;20467;-48
2023/01/28 04:54:47;;;;;;;34.90;32.50;;;;;;;-4.25;100.00;102862.69;5091639;28;20464;-45
2023/01/28 04:57:15;;;;;;;36.87;34.23;;;;;;;-4.25;100.00;102863.56;5092584;28;20434;-43
2023/01/28 04:59:43;;;;;;;35.83;32.83;;;;;;;-4.24;100.00;102854.81;5092433;28;20532;-44
2023/01/28 05:02:10;;;;;;;37.23;34.13;;;;;;;-4.25;100.00;102855.75;5092287;28;20935;-45
2023/01/28 05:04:38;;;;;;;34.97;32.20;;;;;;;-4.25;100.00;102844.47;5091436;28;20483;-48
2023/01/28 05:07:06;;;;;;;35.97;33.30;;;;;;;-4.26;100.00;102840.16;5092222;28;20430;-43
2023/01/28 05:09:33;;;;;;;34.37;31.97;;;;;;;-4.25;100.00;102841.88;5091716;28;20473;-45
2023/01/28 05:12:03;;;;;;;33.53;31.20;;;;;;;-4.26;100.00;102845.34;5092298;28;20434;-46
2023/01/28 05:14:30;;;;;;;34.13;31.57;;;;;;;-4.27;100.00;102836.69;5091539;28;20457;-49
2023/01/28 05:16:58;;;;;;;34.13;31.60;;;;;;;-4.26;100.00;102833.19;5092230;28;20523;-44
2023/01/28 05:19:26;;;;;;;34.53;31.77;;;;;;;-4.26;100.00;102812.34;5091850;28;20461;-45
2023/01/28 05:21:53;;;;;;;35.57;32.70;;;;;;;-4.25;100.00;102826.22;5091882;28;20926;-45
2023/01/28 05:24:21;;;;;;;34.47;31.77;;;;;;;-4.24;100.00;102827.94;5091096;28;20453;-48
2023/01/28 05:26:49;;;;;;;35.33;32.70;;;;;;;-4.22;100.00;102832.19;5092089;28;20432;-44
2023/01/28 05:29:18;;;;;;;34.73;32.20;;;;;;;-4.21;100.00;102818.25;5091666;28;20479;-44
2023/01/28 05:31:47;;;;;;;34.63;31.93;;;;;;;-4.19;100.00;102821.69;5091956;28;20437;-48
2023/01/28 05:34:15;;;;;;;35.13;32.50;;;;;;;-4.17;100.00;102814.66;5091198;28;20561;-43
2023/01/28 05:36:43;;;;;;;33.77;31.20;;;;;;;-4.15;100.00;102819.81;5091658;28;20440;-50
2023/01/28 05:39:10;;;;;;;32.90;30.60;;;;;;;-4.14;100.00;102832.78;5087991;28;20446;-44
2023/01/28 05:41:38;;;;;;;36.07;33.13;;;;;;;-4.13;100.00;102839.72;5087382;28;20789;-46
2023/01/28 05:44:06;;;;;;;34.43;31.77;;;;;;;-4.10;100.00;102838.75;5091037;28;20499;-45
2023/01/28 05:46:35;;;;;;;33.40;31.17;;;;;;;-4.08;100.00;102832.56;5091800;28;20447;-43
2023/01/28 05:49:02;;;;;;;34.67;32.00;;;;;;;-4.06;100.00;102832.53;5095717;28;20846;-43
2023/01/28 05:51:30;;;;;;;33.20;30.73;;;;;;;-4.04;100.00;102828.13;5096465;28;20426;-44
2023/01/28 05:53:58;;;;;;;36.23;33.57;;;;;;;-4.02;100.00;102834.13;5093380;28;20913;-46
2023/01/28 05:56:26;;;;;;;35.40;33.03;;;;;;;-4.00;100.00;102834.91;5092236;28;20513;-46
2023/01/28 05:58:53;;;;;;;34.70;32.50;;;;;;;-3.99;100.00;102831.41;5095518;28;20915;-44
2023/01/28 06:01:21;;;;;;;34.07;31.60;;;;;;;-3.98;100.00;102827.91;5095383;28;20448;-45
2023/01/28 06:03:50;;;;;;;34.40;32.00;;;;;;;-3.98;100.00;102830.50;5094852;28;20865;-44
2023/01/28 06:06:18;;;;;;;36.70;33.90;;;;;;;-3.99;100.00;102842.69;5095100;28;20432;-48
2023/01/28 06:08:45;;;;;;;34.90;32.40;;;;;;;-3.99;100.00;102839.22;5095394;28;20527;-43
2023/01/28 06:11:13;;;;;;;35.47;32.87;;;;;;;-4.01;100.00;102841.03;5094833;28;20502;-44
2023/01/28 06:13:41;;;;;;;35.90;33.20;;;;;;;-4.02;100.00;102844.53;5094588;28;20977;-44
2023/01/28 06:16:09;;;;;;;35.87;33.10;;;;;;;-4.02;100.00;102854.97;5094827;28;20434;-44
2023/01/28 06:18:36;;;;;;;35.23;32.47;;;;;;;-4.05;100.00;102848.09;5094849;28;20981;-45
2023/01/28 06:21:06;;;;;;;35.50;32.80;;;;;;;-4.03;100.00;102848.91;5092831;28;20421;-45
2023/01/28 06:23:33;;;;;;;36.00;32.60;;;;;;;-4.02;100.00;102849.75;5094546;28;20815;-45
2023/01/28 06:26:01;;;;;;;37.90;35.10;;;;;;;-4.01;100.00;102852.31;5094240;28;20436;-46
2023/01/28 06:28:29;;;;;;;36.23;33.37;;;;;;;-3.99;100.00;102860.94;5094555;28;20810;-45
2023/01/28 06:30:56;;;;;;;36.10;33.50;;;;;;;-3.98;100.00;102870.47;5087447;28;20483;-47
2023/01/28 06:33:24;;;;;;;35.93;33.47;;;;;;;-3.97;100.00;102861.72;5094391;28;20631;-50
2023/01/28 06:35:52;;;;;;;34.97;32.27;;;;;;;-3.96;100.00;102850.41;5094495;28;20433;-45
2023/01/28 06:38:21;;;;;;;35.03;32.63;;;;;;;-3.96;100.00;102844.34;5094095;28;20453;-50
2023/01/28 06:40:51;;;;;;;37.03;34.07;;;;;;;-3.94;100.00;102852.94;5094000;28;20430;-45
2023/01/28 06:43:19;;;;;;;38.30;35.37;;;;;;;-3.93;100.00;102857.25;5093811;28;20429;-51
2023/01/28 06:45:47;;;;;;;38.60;35.37;;;;;;;-3.90;100.00;102862.38;5092501;28;20452;-48
2023/01/28 06:48:14;;;;;;;36.03;33.50;;;;;;;-3.87;100.00;102866.63;5094250;28;20450;-49
2023/01/28 06:50:42;;;;;;;34.70;32.40;;;;;;;-3.83;100.00;102869.09;5094346;28;20473;-44
2023/01/28 06:53:10;;;;;;;35.60;32.80;;;;;;;-3.80;100.00;102868.13;5093702;28;20455;-45
2023/01/28 06:55:40;;;;;;;37.10;34.30;;;;;;;-3.79;100.00;102856.81;5093675;28;20791;-47
2023/01/28 06:58:08;;;;;;;36.50;33.80;;;;;;;-3.77;100.00;102866.25;5093269;28;20536;-48
2023/01/28 07:00:36;;;;;;;35.47;32.60;;;;;;;-3.74;100.00;102867.91;5093584;28;20425;-44
2023/01/28 07:03:04;;;;;;;36.77;33.80;;;;;;;-3.71;100.00;102860.84;5093407;28;20434;-43
2023/01/28 07:05:31;;;;;;;36.53;33.73;;;;;;;-3.69;100.00;102864.22;5093220;28;20485;-47
2023/01/28 07:08:01;;;;;;;35.57;32.93;;;;;;;-3.64;100.00;102864.91;5093850;28;20425;-48
2023/01/28 07:10:28;;;;;;;38.03;34.80;;;;;;;-3.62;100.00;102862.28;5093218;28;20858;-43
2023/01/28 07:12:58;;;;;;;35.60;33.00;;;;;;;-3.61;100.00;102859.59;5094226;28;20777;-44
2023/01/28 07:15:26;;;;;;;35.73;33.00;;;;;;;-3.61;100.00;102869.16;5093087;28;20468;-44
2023/01/28 07:17:53;;;;;;;37.27;34.30;;;;;;;-3.61;100.00;102859.59;5093704;28;20819;-45
2023/01/28 07:20:21;;;;;;;38.50;35.33;;;;;;;-3.61;100.00;102843.94;5093526;28;20939;-46
2023/01/28 07:22:49;;;;;;;38.17;34.77;;;;;;;-3.59;100.00;102849.97;5093323;28;20429;-47
2023/01/28 07:25:16;;;;;;;37.40;34.43;;;;;;;-3.55;100.00;102868.94;5092876;28;20876;-47
2023/01/28 07:27:49;;;;;;;36.37;33.37;;;;;;;-3.53;100.00;102869.75;5093875;28;20430;-46
2023/01/28 07:30:20;;;;;;;38.43;35.40;;;;;;;-3.49;100.00;102882.63;5085429;28;20476;-44
2023/01/28 07:32:52;;;;;;;37.90;34.80;;;;;;;-3.41;100.00;102879.75;5093426;28;20426;-43
2023/01/28 07:35:20;;;;;;;38.87;35.60;;;;;;;-3.33;100.00;102879.47;5092585;28;20456;-43
2023/01/28 07:37:52;;;;;;;39.37;35.87;;;;;;;-3.27;100.00;102884.47;5093870;28;20441;-45
2023/01/28 07:40:20;;;;;;;39.93;36.60;;;;;;;-3.17;100.00;102878.88;5089614;28;20441;-46
2023/01/28 07:42:48;;;;;;;39.10;36.07;;;;;;;-3.08;100.00;102885.50;5092318;28;20565;-47
2023/01/28 07:45:16;;;;;;;37.93;34.73;;;;;;;-3.01;100.00;102892.19;5092140;28;20469;-47
2023/01/28 07:47:45;;;;;;;39.57;36.10;;;;;;;-2.93;100.00;102903.22;5091311;28;20450;-47
2023/01/28 07:50:13;;;;;;;38.97;35.60;;;;;;;-2.85;100.00;102902.00;5091178;28;20468;-44
2023/01/28 07:52:43;;;;;;;39.30;36.10;;;;;;;-2.76;100.00;102895.56;5092433;28;20980;-46
2023/01/28 07:55:14;;;;;;;39.40;36.30;;;;;;;-2.65;100.00;102882.09;5092498;28;20480;-48
2023/01/28 07:57:49;;;;;;;38.43;35.23;;;;;;;-2.53;100.00;102890.31;5092837;28;20552;-46
2023/01/28 08:00:18;;;;;;;39.10;35.60;;;;;;;-2.43;100.00;102896.88;5091301;28;20449;-45
2023/01/28 08:02:48;;;;;;;38.60;35.47;;;;;;;-2.32;100.00;102896.44;5092513;28;20422;-44
2023/01/28 08:05:17;;;;;;;39.03;35.97;;;;;;;-2.21;100.00;102899.47;5092079;28;20464;-47
2023/01/28 08:07:47;;;;;;;42.60;39.23;;;;;;;-2.10;100.00;102910.34;5090417;28;20430;-44
2023/01/28 08:10:15;;;;;;;42.77;39.37;;;;;;;-1.99;100.00;102907.28;5090486;28;20464;-45
2023/01/28 08:12:51;;;;;;;40.83;37.40;;;;;;;-1.88;100.00;102902.47;5091566;28;20440;-49
2023/01/28 08:15:19;;;;;;;42.07;38.43;;;;;;;-1.76;100.00;102913.25;5091955;28;20549;-44
2023/01/28 08:17:48;;;;;;;41.50;38.13;;;;;;;-1.64;100.00;102913.66;5092124;28;20430;-44
2023/01/28 08:20:17;;;;;;;44.30;40.17;;;;;;;-1.53;100.00;102900.97;5091011;28;20426;-49
2023/01/28 08:22:45;;;;;;;44.10;40.40;;;;;;;-1.43;100.00;102915.34;5092065;28;20437;-45
2023/01/28 08:25:13;;;;;;;41.17;37.97;;;;;;;-1.29;100.00;102918.22;5091612;28;20453;-45
2023/01/28 08:27:41;;;;;;;41.30;38.10;;;;;;;-1.15;100.00;102924.53;5092153;28;20433;-47
2023/01/28 08:30:10;;;;;;;42.50;39.07;;;;;;;-1.03;100.00;102923.13;5090631;28;20780;-48
2023/01/28 08:32:38;;;;;;;42.70;39.07;;;;;;;-0.97;100.00;102917.63;5091594;28;20477;-45
2023/01/28 08:35:08;;;;;;;44.50;40.93;;;;;;;-0.93;100.00;102905.25;5091239;28;20483;-50
2023/01/28 08:37:35;;;;;;;43.00;38.90;;;;;;;-0.83;100.00;102903.88;5091957;28;20512;-44
2023/01/28 08:40:04;;;;;;;43.17;39.90;;;;;;;-0.83;100.00;102920.44;5086928;28;20453;-45
2023/01/28 08:42:31;;;;;;;43.97;40.50;;;;;;;-0.83;100.00;102917.84;5091664;28;20845;-49
2023/01/28 08:44:59;;;;;;;43.40;40.07;;;;;;;-0.84;100.00;102912.69;5091462;28;20540;-48
2023/01/28 08:47:26;;;;;;;43.93;40.33;;;;;;;-0.86;100.00;102901.41;5091998;28;20429;-44
2023/01/28 08:49:54;;;;;;;43.70;40.23;;;;;;;-0.85;100.00;102901.34;5090430;28;20457;-46
2023/01/28 08:52:23;;;;;;;46.37;42.13;;;;;;;-0.80;100.00;102888.88;5090377;28;20484;-45
2023/01/28 08:54:51;;;;;;;45.47;41.57;;;;;;;-0.74;100.00;102890.34;5090328;28;20461;-45
2023/01/28 08:57:18;;;;;;;44.30;40.63;;;;;;;-0.66;100.00;102883.84;5091201;28;20434;-49
2023/01/28 08:59:46;;;;;;;45.03;41.27;;;;;;;-0.58;100.00;102883.50;5090143;28;20454;-44
2023/01/28 09:02:14;;;;;;;45.63;41.83;;;;;;;-0.52;100.00;102890.22;5090326;28;20434;-47
2023/01/28 09:04:57;;;;;;;46.63;42.73;;;;;;;-0.45;100.00;102900.34;5087593;28;20519;-49
2023/01/28 09:07:27;;;;;;;48.60;44.60;;;;;;;-0.39;100.00;102907.91;5090426;28;20430;-47
2023/01/28 09:09:54;;;;;;;48.90;44.47;;;;;;;-0.32;100.00;102909.28;5089769;28;20558;-46
2023/01/28 09:12:22;;;;;;;48.90;44.57;;;;;;;-0.26;100.00;102909.00;5090793;28;20479;-49
2023/01/28 09:14:51;;;;;;;45.93;42.23;;;;;;;-0.20;100.00;102903.47;5090840;28;20461;-46
2023/01/28 09:17:18;;;;;;;48.73;44.73;;;;;;;-0.09;100.00;102902.94;5090894;28;20429;-47
2023/01/28 09:19:46;;;;;;;48.07;44.17;;;;;;;-0.02;100.00;102893.84;5089228;28;20574;-49
2023/01/28 09:22:13;;;;;;;49.20;44.90;;;;;;;0.07;100.00;102897.78;5089459;28;20429;-48
2023/01/28 09:24:43;;;;;;;48.73;44.13;;;;;;;0.10;100.00;102897.63;5089745;28;20536;-44
2023/01/28 09:27:10;;;;;;;48.07;43.70;;;;;;;0.16;100.00;102900.78;5090540;28;20425;-44
2023/01/28 09:29:38;;;;;;;50.23;45.60;;;;;;;0.22;100.00;102899.63;5089531;28;20449;-46
2023/01/28 09:32:06;;;;;;;50.20;45.87;;;;;;;0.25;100.00;102876.72;5090047;28;20503;-47
2023/01/28 09:34:35;;;;;;;50.47;45.87;;;;;;;0.29;100.00;102867.75;5089861;28;20457;-46
2023/01/28 09:37:02;;;;;;;49.60;45.40;;;;;;;0.34;100.00;102871.00;5090684;28;20421;-48
2023/01/28 09:39:30;;;;;;;49.83;45.50;;;;;;;0.35;100.00;102871.84;5083554;28;20854;-47
2023/01/28 09:42:17;;;;;;;48.03;44.13;;;;;;;0.39;100.00;102874.22;5090119;28;20516;-49
2023/01/28 09:44:59;;;;;;;49.83;45.83;;;;;;;0.46;100.00;102874.75;5087088;28;20477;-46
2023/01/28 09:47:32;;;;;;;51.53;47.03;;;;;;;0.53;100.00;102870.88;5089071;28;20430;-45
2023/01/28 09:50:04;;;;;;;50.47;45.97;;;;;;;0.56;100.00;102868.09;5090168;28;20845;-48
2023/01/28 09:52:36;;;;;;;52.30;47.73;;;;;;;0.65;100.00;102870.25;5090924;28;20469;-46
2023/01/28 09:55:06;;;;;;;49.77;45.47;;;;;;;0.72;100.00;102865.53;5090380;27;20457;-46
2023/01/28 09:57:41;;;;;;;50.73;46.47;;;;;;;0.80;100.00;102858.09;5091391;28;20429;-45
2023/01/28 10:00:15;;;;;;;49.90;45.70;;;;;;;0.86;100.00;102857.75;5090321;28;20581;-45
2023/01/28 10:02:55;;;;;;;53.03;47.90;;;;;;;0.93;100.00;102853.84;5090865;28;20421;-44
2023/01/28 10:05:33;;;;;;;50.43;46.20;;;;;;;0.96;100.00;102845.78;5090235;28;20985;-44
2023/01/28 10:08:15;;;;;;;51.20;46.60;;;;;;;1.07;100.00;102841.69;5090945;28;20420;-45
2023/01/28 10:10:48;;;;;;;48.77;44.20;;;;;;;1.17;100.00;102831.47;5090262;28;20841;-45
2023/01/28 10:13:31;;;;;;;52.57;47.57;;;;;;;1.22;100.00;102816.31;5090313;28;20480;-46
2023/01/28 10:16:12;;;;;;;48.40;44.00;;;;;;;1.35;100.00;102811.19;5090607;28;20753;-44
2023/01/28 10:18:46;;;;;;;51.30;46.77;;;;;;;1.47;100.00;102810.50;5090635;28;20472;-47
2023/01/28 10:21:20;;;;;;;50.40;46.13;;;;;;;1.55;100.00;102816.19;5090103;28;20926;-48
2023/01/28 10:23:57;;;;;;;53.40;47.80;;;;;;;1.64;100.00;102798.06;5085761;28;20869;-49
2023/01/28 10:26:30;;;;;;;51.07;46.40;;;;;;;1.67;100.00;102816.31;5090541;28;20429;-44
2023/01/28 10:29:04;;;;;;;52.10;47.00;;;;;;;1.78;100.00;102823.59;5090281;28;20458;-46
2023/01/28 10:31:37;;;;;;;49.07;44.87;;;;;;;1.85;100.00;102824.09;5089812;28;20425;-47
2023/01/28 10:34:05;;;;;;;50.43;45.93;;;;;;;1.89;100.00;102815.91;5091379;28;21131;-45
2023/01/28 10:36:34;;;;;;;50.77;46.33;;;;;;;1.97;100.00;102820.75;5092076;28;20483;-45
2023/01/28 10:39:01;;;;;;;52.10;47.33;;;;;;;2.02;100.00;102814.25;5093605;28;20453;-46
2023/01/28 10:41:29;;;;;;;49.60;45.63;;;;;;;2.09;100.00;102823.47;5093799;28;20440;-45
2023/01/28 10:43:57;;;;;;;50.23;46.20;;;;;;;2.18;100.00;102822.91;5093840;28;21020;-44
2023/01/28 10:46:29;;;;;;;49.93;45.63;;;;;;;2.25;100.00;102815.50;5094458;28;20833;-46
2023/01/28 10:49:04;;;;;;;51.80;47.30;;;;;;;2.21;100.00;102811.38;5094082;28;21051;-44
2023/01/28 10:51:34;;;;;;;51.97;47.37;;;;;;;2.22;100.00;102807.78;5093619;28;20428;-48
2023/01/28 10:54:02;;;;;;;50.53;46.33;;;;;;;2.27;100.00;102818.06;5093623;28;21059;-45
2023/01/28 10:56:31;;;;;;;51.37;46.93;;;;;;;2.29;100.00;102806.50;5094158;28;20960;-45
2023/01/28 10:59:02;;;;;;;51.23;46.77;;;;;;;2.30;100.00;102810.81;5093790;28;20954;-44
2023/01/28 11:01:43;;;;;;;51.63;46.93;;;;;;;2.36;100.00;102789.38;5093543;28;20532;-48
2023/01/28 11:04:22;;;;;;;50.83;46.40;;;;;;;2.40;100.00;102785.63;5093369;27;20880;-46
2023/01/28 11:06:56;;;;;;;50.73;46.33;;;;;;;2.40;100.00;102790.88;5093849;28;20443;-46
2023/01/28 11:09:27;;;;;;;50.83;46.53;;;;;;;2.35;100.00;102787.69;5093019;28;20461;-45
2023/01/28 11:11:54;;;;;;;49.27;45.27;;;;;;;2.37;100.00;102788.44;5093045;28;20870;-47
2023/01/28 11:14:24;;;;;;;49.93;46.00;;;;;;;2.42;100.00;102788.19;5093117;28;21028;-47
2023/01/28 11:16:55;;;;;;;53.37;48.90;;;;;;;2.46;100.00;102779.97;5093924;28;20471;-46
2023/01/28 11:19:31;;;;;;;49.00;44.97;;;;;;;2.46;100.00;102777.34;5093121;28;20487;-48
2023/01/28 11:21:59;;;;;;;49.57;45.50;;;;;;;2.45;100.00;102775.63;5092554;28;20429;-46
2023/01/28 11:24:30;;;;;;;48.93;45.00;;;;;;;2.50;100.00;102770.97;5093077;28;20464;-44
2023/01/28 11:27:08;;;;;;;50.43;46.43;;;;;;;2.56;100.00;102773.22;5093746;28;20822;-45
2023/01/28 11:29:40;;;;;;;48.07;43.97;;;;;;;2.53;100.00;102764.66;5092425;28;20994;-43
2023/01/28 11:32:19;;;;;;;46.57;42.77;;;;;;;2.59;100.00;102751.94;5092771;28;20439;-46
2023/01/28 11:34:51;;;;;;;45.83;42.23;;;;;;;2.71;100.00;102748.53;5092801;28;20472;-48
2023/01/28 11:37:22;;;;;;;45.73;42.30;;;;;;;2.78;100.00;102746.34;5093536;28;20456;-48
2023/01/28 11:40:01;;;;;;;46.20;42.70;;;;;;;2.83;100.00;102753.97;5092043;28;20453;-44
2023/01/28 11:42:30;;;;;;;47.83;44.27;;;;;;;2.82;100.00;102754.91;5092156;28;20531;-44